Terminal Aerodrome Forecast
Issued by NWS Louisville, KY

Home | Current Version | Previous Version | Text Only | Print | Product List | Glossary On
Versions: 1 2 3 4 5 6 7 8 9 10 11 12 13 14 15
339
FTUS43 KLMK 131123
TAFLEX
TAF
KLEX 131123Z 1312/1412 32008KT P6SM BKN035
     FM131500 34008KT P6SM SCT050 SCT250
     FM140300 03003KT P6SM BKN150=

USA.gov is the U.S. government's official web portal to all federal, state and local government web resources and services.